createdAt,value
2023-04-18T00:00:58.073Z,3.73
2023-04-18T00:02:02.219Z,3.10
2023-04-18T00:03:06.417Z,3.90
2023-04-18T00:04:09.780Z,3.50
2023-04-18T00:05:12.927Z,3.50
2023-04-18T00:06:17.109Z,2.70
2023-04-18T00:07:20.179Z,3.20
2023-04-18T00:08:23.765Z,3.00
2023-04-18T00:09:27.126Z,4.60
2023-04-18T00:10:30.706Z,2.80
2023-04-18T00:11:34.586Z,2.80
2023-04-18T00:12:38.476Z,3.30
2023-04-18T00:13:41.247Z,2.90
2023-04-18T00:14:45.229Z,2.90
2023-04-18T00:15:48.086Z,3.09
2023-04-18T00:16:54.181Z,3.00
2023-04-18T00:17:57.669Z,3.30
2023-04-18T00:19:02.732Z,3.60
2023-04-18T00:20:09.244Z,1.80
2023-04-18T00:21:13.338Z,1.70
2023-04-18T00:22:18.396Z,3.30
2023-04-18T00:23:23.022Z,4.00
2023-04-18T00:24:26.002Z,4.90
2023-04-18T00:25:28.562Z,3.20
2023-04-18T00:26:32.337Z,4.20
2023-04-18T00:27:37.462Z,3.60
2023-04-18T00:28:40.625Z,3.30
2023-04-18T00:29:44.552Z,2.40
2023-04-18T00:30:48.409Z,3.80
2023-04-18T00:31:51.207Z,2.50
2023-04-18T00:32:54.287Z,2.91
2023-04-18T00:33:57.704Z,3.80
2023-04-18T00:35:01.299Z,2.10
2023-04-18T00:36:05.671Z,3.30
2023-04-18T00:37:09.870Z,3.30
2023-04-18T00:38:13.466Z,2.90
2023-04-18T00:39:17.404Z,3.40
2023-04-18T00:40:20.225Z,3.70
2023-04-18T00:41:25.149Z,4.45
2023-04-18T00:42:28.846Z,2.80
2023-04-18T00:43:34.497Z,3.10
2023-04-18T00:44:37.419Z,3.50
2023-04-18T00:45:41.662Z,2.70
2023-04-18T00:46:45.772Z,3.00
2023-04-18T00:47:49.536Z,3.30
2023-04-18T00:48:52.604Z,2.60
2023-04-18T00:49:56.178Z,3.40
2023-04-18T00:51:00.066Z,3.20
2023-04-18T00:52:03.515Z,5.00
2023-04-18T00:53:08.346Z,4.00
2023-04-18T00:54:12.604Z,2.60
2023-04-18T00:55:17.714Z,3.30
2023-04-18T00:56:23.174Z,2.90
2023-04-18T00:57:28.174Z,3.00
2023-04-18T00:58:31.777Z,2.90
2023-04-18T00:59:35.248Z,2.60
2023-04-18T01:00:38.304Z,2.90
2023-04-18T01:01:42.659Z,1.91
2023-04-18T01:02:47.463Z,2.10
2023-04-18T01:03:50.729Z,3.50
2023-04-18T01:04:53.671Z,2.70
2023-04-18T01:05:57.012Z,2.64
2023-04-18T01:07:02.761Z,3.00
2023-04-18T01:08:06.443Z,1.00
2023-04-18T01:09:11.415Z,3.20
2023-04-18T01:10:14.535Z,3.40
2023-04-18T01:11:17.749Z,2.30
2023-04-18T01:12:23.464Z,2.50
2023-04-18T01:13:26.285Z,2.30
2023-04-18T01:14:30.042Z,2.10
2023-04-18T01:15:34.269Z,3.10
2023-04-18T01:16:38.263Z,2.70
2023-04-18T01:17:41.793Z,2.60
2023-04-18T01:18:44.285Z,3.10
2023-04-18T01:19:51.383Z,2.70
2023-04-18T01:20:56.301Z,3.20
2023-04-18T01:21:59.374Z,3.20
2023-04-18T01:23:02.867Z,2.00
2023-04-18T01:25:28.565Z,3.30
2023-04-18T01:26:32.687Z,3.00
2023-04-18T01:27:35.921Z,2.90
2023-04-18T01:28:39.092Z,2.50
2023-04-18T01:29:44.574Z,2.40
2023-04-18T01:30:48.281Z,2.40
2023-04-18T01:31:51.013Z,3.30
2023-04-18T01:32:54.140Z,2.50
2023-04-18T01:33:57.416Z,3.60
2023-04-18T01:35:00.454Z,2.80
2023-04-18T01:36:04.947Z,2.64
2023-04-18T01:37:09.497Z,3.40
2023-04-18T01:38:13.369Z,2.40
2023-04-18T01:39:17.773Z,3.00
2023-04-18T01:40:21.926Z,3.00
2023-04-18T01:41:27.749Z,1.90
2023-04-18T01:42:31.243Z,3.30
2023-04-18T01:43:34.860Z,3.40
2023-04-18T01:44:39.648Z,2.20
2023-04-18T01:45:42.974Z,2.30
2023-04-18T01:46:45.820Z,2.50
2023-04-18T01:47:49.338Z,2.60
2023-04-18T01:48:52.410Z,2.60
2023-04-18T01:49:56.030Z,2.30
2023-04-18T01:50:58.823Z,2.10
2023-04-18T01:52:01.644Z,2.45
2023-04-18T01:53:04.587Z,1.40
2023-04-18T01:54:08.348Z,1.60
2023-04-18T01:55:11.619Z,1.90
2023-04-18T01:56:15.148Z,3.00
2023-04-18T01:57:18.210Z,2.60
2023-04-18T01:59:34.572Z,2.20
2023-04-18T02:00:38.147Z,3.00
2023-04-18T02:01:43.019Z,1.60
2023-04-18T02:02:46.324Z,2.00
2023-04-18T02:03:49.286Z,2.80
2023-04-18T02:04:52.440Z,2.09
2023-04-18T02:05:55.543Z,2.70
2023-04-18T02:06:58.866Z,3.00
2023-04-18T02:08:01.774Z,3.00
2023-04-18T02:09:06.952Z,2.30
2023-04-18T02:10:10.772Z,3.00
2023-04-18T02:11:13.504Z,3.00
2023-04-18T02:12:16.498Z,2.30
2023-04-18T02:13:19.290Z,2.30
2023-04-18T02:14:23.159Z,2.00
2023-04-18T02:15:26.967Z,3.70
2023-04-18T02:16:30.786Z,2.70
2023-04-18T02:17:35.062Z,2.30
2023-04-18T02:18:39.023Z,3.00
2023-04-18T02:19:42.341Z,2.30
2023-04-18T02:20:45.413Z,2.30
2023-04-18T02:21:49.568Z,2.60
2023-04-18T02:22:52.498Z,3.00
2023-04-18T02:23:55.820Z,2.73
2023-04-18T02:24:58.733Z,2.70
2023-04-18T02:26:02.465Z,2.36
2023-04-18T02:27:06.091Z,2.60
2023-04-18T02:28:08.679Z,3.10
2023-04-18T02:29:11.445Z,2.30
2023-04-18T02:30:14.795Z,3.00
2023-04-18T02:31:18.666Z,2.00
2023-04-18T02:32:21.495Z,2.70
2023-04-18T02:33:24.672Z,2.00
2023-04-18T02:34:27.599Z,2.80
2023-04-18T02:35:31.198Z,3.64
2023-04-18T02:36:34.104Z,2.30
2023-04-18T02:37:38.637Z,2.30
2023-04-18T02:38:42.365Z,3.00
2023-04-18T02:39:45.481Z,2.10
2023-04-18T02:40:48.270Z,2.40
2023-04-18T02:41:50.917Z,2.20
2023-04-18T02:42:53.502Z,2.20
2023-04-18T02:43:56.500Z,2.10
2023-04-18T02:45:00.200Z,2.40
2023-04-18T02:46:03.942Z,2.80
2023-04-18T02:47:07.193Z,2.10
2023-04-18T02:48:10.844Z,2.10
2023-04-18T02:49:13.942Z,2.30
2023-04-18T02:50:19.211Z,2.70
2023-04-18T02:51:23.623Z,1.60
2023-04-18T02:52:27.546Z,2.30
2023-04-18T02:53:30.671Z,2.10
2023-04-18T02:54:33.755Z,1.40
2023-04-18T02:55:41.222Z,2.10
2023-04-18T02:56:44.110Z,2.10
2023-04-18T02:58:06.142Z,1.80
2023-04-18T03:00:49.878Z,1.70
2023-04-18T03:01:54.653Z,2.10
2023-04-18T03:02:58.458Z,1.80
2023-04-18T03:04:03.352Z,1.70
2023-04-18T03:05:08.213Z,1.00
2023-04-18T03:06:11.977Z,2.40
2023-04-18T03:07:15.388Z,0.70
2023-04-18T03:08:18.378Z,2.00
2023-04-18T03:09:21.344Z,1.80
2023-04-18T03:10:25.962Z,1.30
2023-04-18T03:11:28.750Z,2.00
2023-04-18T03:12:31.938Z,2.60
2023-04-18T03:13:36.091Z,2.40
2023-04-18T03:14:39.969Z,1.20
2023-04-18T03:15:43.720Z,1.90
2023-04-18T03:17:59.138Z,2.30
2023-04-18T03:19:03.597Z,1.80
2023-04-18T03:20:09.870Z,1.00
2023-04-18T03:21:14.374Z,2.00
2023-04-18T03:22:17.401Z,3.10
2023-04-18T03:23:25.484Z,2.50
2023-04-18T03:24:28.318Z,1.18
2023-04-18T03:25:34.271Z,2.30
2023-04-18T03:26:37.404Z,2.80
2023-04-18T03:27:41.602Z,2.20
2023-04-18T03:28:44.910Z,1.00
2023-04-18T03:29:47.701Z,1.40
2023-04-18T03:30:51.581Z,1.80
2023-04-18T03:31:54.408Z,2.00
2023-04-18T03:32:58.686Z,1.30
2023-04-18T03:34:01.960Z,1.50
2023-04-18T03:35:05.437Z,2.00
2023-04-18T03:37:22.683Z,1.80
2023-04-18T03:38:27.268Z,2.60
2023-04-18T03:39:30.711Z,1.70
2023-04-18T03:40:34.052Z,2.10
2023-04-18T03:41:38.857Z,0.20
2023-04-18T03:42:42.650Z,1.60
2023-04-18T03:43:46.524Z,1.40
2023-04-18T03:44:49.863Z,1.00
2023-04-18T03:45:53.918Z,2.50
2023-04-18T03:46:58.912Z,2.40
2023-04-18T03:48:03.036Z,1.70
2023-04-18T03:49:07.804Z,2.60
2023-04-18T03:50:11.631Z,2.20
2023-04-18T03:51:16.407Z,1.70
2023-04-18T03:52:19.718Z,1.80
2023-04-18T03:53:23.896Z,2.70
2023-04-18T03:54:27.647Z,2.20
2023-04-18T03:55:30.784Z,2.20
2023-04-18T03:56:34.496Z,2.70
2023-04-18T03:57:38.873Z,1.70
2023-04-18T03:58:44.485Z,2.40
2023-04-18T03:59:48.125Z,3.60
2023-04-18T04:00:52.798Z,1.70
2023-04-18T04:01:56.908Z,2.90
2023-04-18T04:03:00.398Z,1.70
2023-04-18T04:04:04.583Z,3.20
2023-04-18T04:05:08.669Z,3.40
2023-04-18T04:06:11.474Z,3.50
2023-04-18T04:07:14.952Z,1.40
2023-04-18T04:08:17.849Z,3.50
2023-04-18T04:09:22.224Z,3.55
2023-04-18T04:10:26.930Z,2.60
2023-04-18T04:11:30.103Z,3.00
2023-04-18T04:12:33.524Z,3.30
2023-04-18T04:13:37.103Z,3.20
2023-04-18T04:14:41.892Z,3.30
2023-04-18T04:15:44.889Z,4.10
2023-04-18T04:16:48.065Z,3.50
2023-04-18T04:17:55.104Z,3.00
2023-04-18T04:18:58.202Z,3.70
2023-04-18T04:20:03.391Z,2.90
2023-04-18T04:21:09.048Z,4.40
2023-04-18T04:22:19.114Z,4.90
2023-04-18T04:23:24.421Z,4.20
2023-04-18T04:24:28.522Z,5.60
2023-04-18T04:25:33.572Z,3.50
2023-04-18T04:26:38.490Z,3.80
2023-04-18T04:27:46.135Z,4.30
2023-04-18T04:30:06.589Z,3.90
2023-04-18T04:31:11.367Z,4.70
2023-04-18T04:32:16.154Z,3.60
2023-04-18T04:33:19.734Z,4.60
2023-04-18T04:35:36.190Z,3.80
2023-04-18T04:36:43.363Z,1.50
2023-04-18T04:37:48.017Z,3.30
2023-04-18T04:40:08.873Z,4.00
2023-04-18T04:41:28.293Z,4.80
2023-04-18T04:42:31.285Z,3.30
2023-04-18T04:43:35.941Z,4.70
2023-04-18T04:45:53.232Z,5.00
2023-04-18T04:46:58.121Z,4.30
2023-04-18T04:48:03.637Z,4.20
2023-04-18T04:49:06.747Z,3.50
2023-04-18T04:50:15.147Z,5.10
2023-04-18T04:51:19.150Z,4.90
2023-04-18T04:52:23.011Z,5.40
2023-04-18T04:53:28.279Z,4.10
2023-04-18T04:54:31.090Z,4.60
2023-04-18T04:55:34.065Z,4.82
2023-04-18T04:57:50.821Z,5.60
2023-04-18T04:59:04.071Z,5.30
2023-04-18T05:00:10.586Z,4.30
2023-04-18T05:01:17.221Z,3.80
2023-04-18T05:03:35.526Z,5.30
2023-04-18T05:04:39.555Z,4.70
2023-04-18T05:05:42.945Z,4.30
2023-04-18T05:06:45.829Z,6.30
2023-04-18T05:07:48.436Z,5.90
2023-04-18T05:08:52.085Z,6.40
2023-04-18T05:09:55.564Z,4.70
2023-04-18T05:10:58.499Z,5.60
2023-04-18T05:13:12.983Z,6.20
2023-04-18T05:14:18.227Z,4.10
2023-04-18T05:15:20.830Z,6.00
2023-04-18T05:16:24.316Z,3.20
2023-04-18T05:17:27.041Z,6.80
2023-04-18T05:18:31.585Z,6.64
2023-04-18T05:19:35.120Z,5.70
2023-04-18T05:20:39.748Z,5.10
2023-04-18T05:21:42.448Z,5.80
2023-04-18T05:22:46.557Z,6.70
2023-04-18T05:23:52.265Z,5.00
2023-04-18T05:24:55.088Z,4.30
2023-04-18T05:25:59.088Z,6.60
2023-04-18T05:28:15.316Z,5.80
2023-04-18T05:29:18.455Z,4.60
2023-04-18T05:30:23.222Z,4.70
2023-04-18T05:31:26.692Z,4.90
2023-04-18T05:32:30.528Z,6.00
2023-04-18T05:33:34.267Z,4.50
2023-04-18T05:34:38.869Z,5.50
2023-04-18T05:35:42.694Z,6.00
2023-04-18T05:36:48.147Z,5.30
2023-04-18T05:37:51.134Z,5.50
2023-04-18T05:38:55.379Z,6.36
2023-04-18T05:40:00.564Z,5.80
2023-04-18T05:41:05.203Z,3.00
2023-04-18T05:42:07.883Z,5.40
2023-04-18T05:43:10.490Z,5.45
2023-04-18T05:44:13.212Z,5.27
2023-04-18T05:45:16.336Z,4.45
2023-04-18T05:46:19.035Z,5.10
2023-04-18T05:47:24.426Z,5.70
2023-04-18T05:48:28.403Z,2.00
2023-04-18T05:49:32.012Z,5.10
2023-04-18T05:50:34.945Z,6.10
2023-04-18T05:51:39.603Z,6.60
2023-04-18T05:52:44.303Z,6.40
2023-04-18T05:53:47.691Z,5.60
2023-04-18T05:54:50.503Z,4.70
2023-04-18T05:55:54.077Z,6.60
2023-04-18T05:56:58.353Z,5.10
2023-04-18T05:58:01.085Z,5.80
2023-04-18T05:59:04.927Z,4.64
2023-04-18T06:00:12.701Z,6.30
2023-04-18T06:01:16.715Z,5.90
2023-04-18T06:02:19.795Z,5.00
2023-04-18T06:03:23.601Z,4.90
2023-04-18T06:04:27.045Z,5.20
2023-04-18T06:05:30.397Z,5.80
2023-04-18T06:06:35.785Z,6.30
2023-04-18T06:07:39.441Z,5.60
2023-04-18T06:08:42.974Z,5.80
2023-04-18T06:09:45.942Z,5.00
2023-04-18T06:10:49.598Z,6.00
2023-04-18T06:11:52.439Z,5.10
2023-04-18T06:12:55.209Z,6.45
2023-04-18T06:13:57.941Z,5.82
2023-04-18T06:15:01.414Z,4.20
2023-04-18T06:16:05.336Z,4.40
2023-04-18T06:17:09.575Z,5.00
2023-04-18T06:18:12.416Z,6.60
2023-04-18T06:19:15.294Z,5.60
2023-04-18T06:20:18.120Z,4.91
2023-04-18T06:21:21.344Z,6.09
2023-04-18T06:22:24.608Z,7.30
2023-04-18T06:23:28.340Z,5.90
2023-04-18T06:24:31.320Z,6.09
2023-04-18T06:25:35.070Z,6.20
2023-04-18T06:26:39.181Z,5.20
2023-04-18T06:27:41.784Z,6.00
2023-04-18T06:28:45.807Z,6.40
2023-04-18T06:29:48.514Z,5.50
2023-04-18T06:30:51.317Z,5.00
2023-04-18T06:31:54.546Z,5.73
2023-04-18T06:32:57.970Z,7.00
2023-04-18T06:34:00.624Z,6.00
2023-04-18T06:35:04.480Z,5.18
2023-04-18T06:36:08.272Z,6.00
2023-04-18T06:37:11.395Z,2.90
2023-04-18T06:38:14.550Z,5.50
2023-04-18T06:39:18.200Z,4.90
2023-04-18T06:40:21.158Z,6.20
2023-04-18T06:41:24.178Z,5.82
2023-04-18T06:42:27.988Z,6.00
2023-04-18T06:43:30.743Z,6.20
2023-04-18T06:44:35.552Z,2.00
2023-04-18T06:45:38.608Z,4.60
2023-04-18T06:46:41.987Z,6.00
2023-04-18T06:47:46.601Z,6.00
2023-04-18T06:48:51.568Z,5.80
2023-04-18T06:49:56.427Z,3.60
2023-04-18T06:50:59.054Z,5.00
2023-04-18T06:52:01.758Z,5.73
2023-04-18T06:53:04.503Z,5.40
2023-04-18T06:54:08.407Z,5.30
2023-04-18T06:55:12.349Z,5.50
2023-04-18T06:56:15.161Z,6.00
2023-04-18T06:57:18.078Z,6.90
2023-04-18T06:58:21.801Z,5.82
2023-04-18T06:59:24.301Z,6.00
2023-04-18T07:00:27.127Z,4.64
2023-04-18T07:01:34.231Z,7.00
2023-04-18T07:02:38.303Z,5.70
2023-04-18T07:03:41.223Z,4.50
2023-04-18T07:04:45.135Z,6.40
2023-04-18T07:05:47.980Z,5.82
2023-04-18T07:06:51.206Z,5.45
2023-04-18T07:07:54.129Z,5.20
2023-04-18T07:09:00.238Z,5.90
2023-04-18T07:10:04.650Z,5.80
2023-04-18T07:11:08.197Z,4.50
2023-04-18T07:12:11.439Z,6.70
2023-04-18T07:13:14.039Z,5.20
2023-04-18T07:14:17.231Z,6.00
2023-04-18T07:15:20.791Z,5.00
2023-04-18T07:16:24.139Z,4.90
2023-04-18T07:17:27.115Z,5.70
2023-04-18T07:18:37.425Z,4.64
2023-04-18T07:19:35.256Z,5.70
2023-04-18T07:20:38.145Z,7.50
2023-04-18T07:21:42.463Z,6.70
2023-04-18T07:22:46.330Z,7.10
2023-04-18T07:23:49.270Z,7.20
2023-04-18T07:24:51.796Z,6.30
2023-04-18T07:25:54.852Z,4.91
2023-04-18T07:26:57.773Z,4.91
2023-04-18T07:28:01.414Z,7.36
2023-04-18T07:29:06.410Z,5.10
2023-04-18T07:30:10.469Z,7.50
2023-04-18T07:31:13.953Z,5.40
2023-04-18T07:32:18.182Z,5.20
2023-04-18T07:33:21.225Z,6.20
2023-04-18T07:34:25.315Z,4.40
2023-04-18T07:35:28.947Z,6.50
2023-04-18T07:36:33.132Z,5.27
2023-04-18T07:37:36.400Z,5.90
2023-04-18T07:38:39.623Z,5.20
2023-04-18T07:39:42.963Z,5.40
2023-04-18T07:40:47.482Z,4.90
2023-04-18T07:41:50.783Z,7.60
2023-04-18T07:42:54.016Z,6.10
2023-04-18T07:43:57.245Z,5.40
2023-04-18T07:45:00.564Z,5.70
2023-04-18T07:46:03.583Z,6.30
2023-04-18T07:47:09.834Z,6.00
2023-04-18T07:48:13.596Z,6.30
2023-04-18T07:49:17.281Z,6.00
2023-04-18T07:50:20.173Z,7.40
2023-04-18T07:51:25.351Z,6.20
2023-04-18T07:52:29.865Z,5.10
2023-04-18T07:53:33.041Z,6.90
2023-04-18T07:54:35.971Z,7.00
2023-04-18T07:55:39.287Z,7.09
2023-04-18T07:56:43.362Z,4.60
2023-04-18T07:57:47.952Z,5.70
2023-04-18T07:58:51.578Z,5.10
2023-04-18T07:59:54.428Z,8.00
2023-04-18T08:00:57.520Z,7.45
2023-04-18T08:02:00.483Z,6.00
2023-04-18T08:03:04.215Z,7.10
2023-04-18T08:04:07.295Z,7.20
2023-04-18T08:05:11.871Z,6.30
2023-04-18T08:06:16.186Z,5.90
2023-04-18T08:07:20.165Z,7.80
2023-04-18T08:08:23.658Z,6.50
2023-04-18T08:10:59.794Z,7.00
2023-04-18T08:12:04.293Z,5.30
2023-04-18T08:13:07.600Z,6.80
2023-04-18T08:14:11.094Z,6.20
2023-04-18T08:15:14.416Z,13.50
2023-04-18T08:16:17.654Z,12.10
2023-04-18T08:17:21.850Z,9.30
2023-04-18T08:18:25.755Z,9.40
2023-04-18T08:19:28.905Z,9.60
2023-04-18T08:20:32.008Z,10.20
2023-04-18T08:21:34.979Z,6.27
2023-04-18T08:22:46.753Z,7.50
2023-04-18T08:23:42.649Z,8.60
2023-04-18T08:25:01.082Z,2.40
2023-04-18T08:25:51.035Z,8.20
2023-04-18T08:26:53.927Z,9.20
2023-04-18T08:27:58.252Z,7.60
2023-04-18T08:29:01.395Z,8.00
2023-04-18T08:30:06.583Z,6.64
2023-04-18T08:31:11.770Z,7.50
2023-04-18T08:32:15.576Z,8.40
2023-04-18T08:33:18.426Z,8.70
2023-04-18T08:34:22.654Z,7.50
2023-04-18T08:35:25.958Z,7.70
2023-04-18T08:36:28.786Z,7.70
2023-04-18T08:37:34.419Z,6.70
2023-04-18T08:38:37.963Z,6.80
2023-04-18T08:39:41.215Z,8.82
2023-04-18T08:40:44.691Z,7.10
2023-04-18T08:41:52.671Z,6.40
2023-04-18T08:42:56.734Z,7.90
2023-04-18T08:44:00.269Z,9.20
2023-04-18T08:45:05.325Z,7.70
2023-04-18T08:46:08.554Z,6.60
2023-04-18T08:47:12.096Z,6.40
2023-04-18T08:48:16.290Z,10.30
2023-04-18T08:49:20.888Z,7.50
2023-04-18T08:50:23.765Z,7.70
2023-04-18T08:51:30.420Z,8.70
2023-04-18T08:52:34.274Z,9.40
2023-04-18T08:53:38.690Z,7.10
2023-04-18T08:54:43.291Z,6.10
2023-04-18T08:55:47.329Z,6.80
2023-04-18T08:57:06.832Z,9.20
2023-04-18T08:58:12.459Z,7.40
2023-04-18T08:59:17.266Z,7.40
2023-04-18T09:00:20.430Z,8.10
2023-04-18T09:01:23.863Z,8.70
2023-04-18T09:02:40.692Z,7.30
2023-04-18T09:03:44.512Z,8.10
2023-04-18T09:04:53.255Z,7.60
2023-04-18T09:07:28.324Z,7.00
2023-04-18T09:08:31.164Z,6.90
2023-04-18T09:09:53.804Z,7.55
2023-04-18T09:10:57.992Z,6.80
2023-04-18T09:12:07.185Z,7.00
2023-04-18T09:13:10.569Z,7.00
2023-04-18T09:14:27.330Z,7.80
2023-04-18T09:15:30.749Z,4.80
2023-04-18T09:16:47.501Z,6.60
2023-04-18T09:17:56.014Z,6.30
2023-04-18T09:19:14.783Z,7.40
2023-04-18T09:20:37.029Z,7.90
2023-04-18T09:21:40.728Z,7.10
2023-04-18T09:22:54.395Z,2.30
2023-04-18T09:25:37.460Z,5.90
2023-04-18T09:26:41.212Z,6.90
2023-04-18T09:27:43.827Z,6.82
2023-04-18T09:28:47.665Z,4.64
2023-04-18T09:29:54.691Z,6.90
2023-04-18T09:31:13.941Z,5.30
2023-04-18T09:32:26.211Z,6.90
2023-04-18T09:33:33.763Z,6.60
2023-04-18T09:34:40.047Z,6.20
2023-04-18T09:35:44.189Z,7.80
2023-04-18T09:36:47.204Z,4.40
2023-04-18T09:37:50.682Z,6.00
2023-04-18T09:38:56.694Z,6.40
2023-04-18T09:39:58.947Z,6.40
2023-04-18T09:41:09.134Z,5.80
2023-04-18T09:42:12.132Z,6.60
2023-04-18T09:44:32.420Z,6.20
2023-04-18T09:45:35.345Z,5.20
2023-04-18T09:46:38.231Z,6.50
2023-04-18T09:47:41.116Z,7.45
2023-04-18T09:48:44.490Z,5.09
2023-04-18T09:49:47.610Z,6.40
2023-04-18T09:50:50.602Z,6.60
2023-04-18T09:51:55.676Z,6.82
2023-04-18T09:52:58.739Z,5.80
2023-04-18T09:54:02.311Z,5.50
2023-04-18T09:55:09.618Z,5.60
2023-04-18T09:56:16.280Z,6.40
2023-04-18T09:57:19.830Z,6.70
2023-04-18T09:58:22.641Z,6.00
2023-04-18T09:59:31.799Z,5.30
2023-04-18T10:00:35.519Z,5.00
2023-04-18T10:01:43.217Z,5.50
2023-04-18T10:02:57.722Z,4.00
2023-04-18T10:05:19.550Z,6.30
2023-04-18T10:06:24.021Z,6.20
2023-04-18T10:07:31.364Z,7.00
2023-04-18T10:08:38.991Z,5.70
2023-04-18T10:09:44.850Z,6.70
2023-04-18T10:10:51.507Z,6.20
2023-04-18T10:12:02.344Z,5.10
2023-04-18T10:13:09.330Z,5.40
2023-04-18T10:14:14.722Z,5.70
2023-04-18T10:15:17.869Z,5.40
2023-04-18T10:16:24.439Z,6.70
2023-04-18T10:17:29.426Z,6.50
2023-04-18T10:18:39.378Z,7.50
2023-04-18T10:19:46.513Z,5.50
2023-04-18T10:20:49.586Z,6.10
2023-04-18T10:23:36.683Z,5.10
2023-04-18T10:24:53.905Z,6.20
2023-04-18T10:25:57.347Z,5.10
2023-04-18T10:27:00.586Z,5.80
2023-04-18T10:28:04.404Z,6.00
2023-04-18T10:29:08.730Z,4.00
2023-04-18T10:30:12.810Z,5.40
2023-04-18T10:31:16.932Z,4.80
2023-04-18T10:32:23.123Z,4.50
2023-04-18T10:33:35.593Z,5.10
2023-04-18T10:34:40.839Z,6.20
2023-04-18T10:36:07.426Z,6.90
2023-04-18T10:37:12.636Z,6.70
2023-04-18T10:38:18.360Z,6.00
2023-04-18T10:40:34.221Z,4.90
2023-04-18T10:42:56.527Z,5.20
2023-04-18T10:44:12.756Z,4.90
2023-04-18T10:45:22.374Z,7.40
2023-04-18T10:46:32.637Z,13.30
2023-04-18T10:47:31.249Z,13.30
2023-04-18T10:49:39.582Z,17.40
2023-04-18T10:51:17.730Z,17.55
2023-04-18T10:52:20.924Z,21.40
2023-04-18T10:53:24.864Z,20.70
2023-04-18T10:54:37.595Z,24.80
2023-04-18T10:55:41.834Z,33.60
2023-04-18T10:56:54.300Z,39.70
2023-04-18T10:57:56.996Z,37.90
2023-04-18T10:59:01.524Z,36.10
2023-04-18T11:00:08.865Z,31.80
2023-04-18T11:01:11.760Z,35.90
2023-04-18T11:02:28.366Z,31.36
2023-04-18T11:03:34.891Z,34.20
2023-04-18T11:04:38.955Z,25.90
2023-04-18T11:05:42.629Z,26.00
2023-04-18T11:08:01.273Z,26.20
2023-04-18T11:09:11.887Z,28.20
2023-04-18T11:10:27.039Z,24.00
2023-04-18T11:11:30.112Z,27.10
2023-04-18T11:12:36.290Z,24.20
2023-04-18T11:14:00.293Z,22.80
2023-04-18T11:16:33.071Z,32.20
2023-04-18T11:17:37.917Z,29.20
2023-04-18T11:20:08.618Z,20.90
2023-04-18T11:21:12.844Z,31.60
2023-04-18T11:22:18.241Z,30.60
2023-04-18T11:23:22.337Z,37.20
2023-04-18T11:24:26.787Z,34.90
2023-04-18T11:26:48.693Z,36.10
2023-04-18T11:27:51.933Z,33.80
2023-04-18T11:30:10.759Z,32.20
2023-04-18T11:31:15.508Z,29.40
2023-04-18T11:32:19.456Z,32.20
2023-04-18T11:33:22.281Z,23.60
2023-04-18T11:34:29.469Z,30.00
2023-04-18T11:35:34.139Z,23.60
2023-04-18T11:36:38.246Z,26.80
2023-04-18T11:37:42.095Z,24.30
2023-04-18T11:38:45.914Z,24.50
2023-04-18T11:39:48.666Z,21.40
2023-04-18T11:40:51.822Z,22.64
2023-04-18T11:41:57.001Z,15.40
2023-04-18T11:44:26.060Z,18.30
2023-04-18T11:45:29.513Z,20.30
2023-04-18T11:46:39.472Z,16.00
2023-04-18T11:47:43.249Z,18.50
2023-04-18T11:48:47.694Z,16.30
2023-04-18T11:50:04.975Z,15.90
2023-04-18T11:51:11.242Z,15.00
2023-04-18T11:53:38.026Z,17.80
2023-04-18T11:54:42.257Z,13.80
2023-04-18T11:55:57.227Z,14.50
2023-04-18T11:57:01.383Z,15.50
2023-04-18T11:58:07.571Z,12.80
2023-04-18T11:59:10.474Z,13.10
2023-04-18T12:00:15.116Z,12.90
2023-04-18T12:01:21.592Z,13.50
2023-04-18T12:02:27.138Z,13.50
2023-04-18T12:03:31.579Z,13.10
2023-04-18T12:04:50.476Z,12.20
2023-04-18T12:07:12.863Z,12.70
2023-04-18T12:08:19.968Z,10.60
2023-04-18T12:09:26.701Z,11.50
2023-04-18T12:10:30.888Z,13.00
2023-04-18T12:11:34.885Z,11.80
2023-04-18T12:12:38.178Z,9.80
2023-04-18T12:13:40.907Z,12.00
2023-04-18T12:14:44.285Z,11.60
2023-04-18T12:17:02.765Z,11.20
2023-04-18T12:18:08.034Z,9.80
2023-04-18T12:19:12.680Z,7.80
2023-04-18T12:20:15.980Z,7.80
2023-04-18T12:21:19.670Z,10.10
2023-04-18T12:22:44.972Z,9.10
2023-04-18T12:23:50.079Z,10.70
2023-04-18T12:25:08.086Z,7.90
2023-04-18T12:26:17.118Z,8.60
2023-04-18T12:27:20.205Z,8.20
2023-04-18T12:29:36.270Z,9.10
2023-04-18T12:30:39.997Z,6.20
2023-04-18T12:31:42.604Z,6.40
2023-04-18T12:32:45.561Z,9.30
2023-04-18T12:33:51.170Z,6.90
2023-04-18T12:34:53.758Z,9.30
2023-04-18T12:35:56.807Z,7.70
2023-04-18T12:37:00.923Z,10.00
2023-04-18T12:38:05.457Z,7.80
2023-04-18T12:39:09.249Z,9.60
2023-04-18T12:40:15.706Z,10.10
2023-04-18T12:42:22.129Z,7.70
2023-04-18T12:43:25.226Z,7.90
2023-04-18T12:44:28.519Z,9.00
2023-04-18T12:45:31.117Z,8.30
2023-04-18T12:46:35.508Z,7.40
2023-04-18T12:47:40.323Z,7.90
2023-04-18T12:48:43.387Z,7.70
2023-04-18T12:49:46.540Z,8.00
2023-04-18T12:50:50.460Z,7.20
2023-04-18T12:51:53.646Z,8.10
2023-04-18T12:52:58.846Z,7.90
2023-04-18T12:54:01.633Z,7.90
2023-04-18T12:55:06.823Z,6.20
2023-04-18T12:56:11.255Z,5.90
2023-04-18T12:57:15.144Z,6.60
2023-04-18T12:58:18.117Z,7.10
2023-04-18T12:59:22.867Z,7.91
2023-04-18T13:00:29.005Z,5.80
2023-04-18T13:01:32.047Z,6.40
2023-04-18T13:02:37.624Z,6.82
2023-04-18T13:03:40.676Z,7.90
2023-04-18T13:04:45.757Z,7.20
2023-04-18T13:05:50.902Z,6.20
2023-04-18T13:06:53.487Z,6.50
2023-04-18T13:08:08.655Z,7.40
2023-04-18T13:09:01.392Z,8.00
2023-04-18T13:10:05.069Z,6.91
2023-04-18T13:11:08.283Z,8.00
2023-04-18T13:12:11.240Z,3.40
2023-04-18T13:13:14.969Z,8.30
2023-04-18T13:14:18.221Z,5.20
2023-04-18T13:15:25.209Z,6.40
2023-04-18T13:16:28.313Z,5.90
2023-04-18T13:17:31.752Z,6.00
2023-04-18T13:18:35.835Z,7.90
2023-04-18T13:19:40.064Z,5.50
2023-04-18T13:20:44.120Z,7.00
2023-04-18T13:21:49.485Z,5.90
2023-04-18T13:22:52.282Z,7.60
2023-04-18T13:23:55.852Z,6.10
2023-04-18T13:24:58.776Z,6.10
2023-04-18T13:26:02.438Z,6.00
2023-04-18T13:27:07.826Z,7.40
2023-04-18T13:28:10.428Z,6.60
2023-04-18T13:29:13.312Z,5.80
2023-04-18T13:30:19.459Z,5.20
2023-04-18T13:31:22.261Z,5.60
2023-04-18T13:32:25.887Z,6.00
2023-04-18T13:33:30.011Z,5.40
2023-04-18T13:34:38.324Z,5.50
2023-04-18T13:35:41.764Z,7.20
2023-04-18T13:36:44.674Z,7.20
2023-04-18T13:37:48.774Z,5.40
2023-04-18T13:38:51.510Z,6.50
2023-04-18T13:39:55.579Z,7.40
2023-04-18T13:41:08.848Z,6.10
2023-04-18T13:42:04.442Z,6.20
2023-04-18T13:43:07.731Z,6.50
2023-04-18T13:44:10.871Z,5.60
2023-04-18T13:45:13.581Z,6.73
2023-04-18T13:46:17.994Z,4.70
2023-04-18T13:47:21.611Z,6.10
2023-04-18T13:48:27.789Z,4.50
2023-04-18T13:49:32.075Z,6.10
2023-04-18T13:50:35.866Z,6.20
2023-04-18T13:51:38.900Z,6.90
2023-04-18T13:52:42.775Z,4.50
2023-04-18T13:53:45.593Z,6.30
2023-04-18T13:54:48.719Z,5.45
2023-04-18T13:55:51.424Z,4.40
2023-04-18T13:56:56.620Z,6.82
2023-04-18T13:58:00.587Z,5.40
2023-04-18T13:59:03.975Z,6.30
2023-04-18T14:00:09.597Z,5.90
2023-04-18T14:01:16.155Z,5.40
2023-04-18T14:02:19.313Z,5.82
2023-04-18T14:03:23.288Z,4.40
2023-04-18T14:04:27.024Z,5.50
2023-04-18T14:05:32.052Z,5.60
2023-04-18T14:06:34.761Z,5.90
2023-04-18T14:07:37.872Z,5.73
2023-04-18T14:08:41.241Z,5.90
2023-04-18T14:09:43.981Z,5.91
2023-04-18T14:10:46.766Z,5.09
2023-04-18T14:11:50.727Z,3.50
2023-04-18T14:12:53.837Z,4.60
2023-04-18T14:13:57.577Z,5.40
2023-04-18T14:15:00.949Z,5.30
2023-04-18T14:16:06.848Z,5.30
2023-04-18T14:17:10.626Z,4.80
2023-04-18T14:18:14.823Z,5.20
2023-04-18T14:19:17.639Z,5.50
2023-04-18T14:20:22.125Z,5.80
2023-04-18T14:22:37.983Z,5.30
2023-04-18T14:23:41.616Z,6.90
2023-04-18T14:24:44.917Z,5.00
2023-04-18T14:25:47.845Z,5.00
2023-04-18T14:26:50.629Z,4.80
2023-04-18T14:28:07.238Z,5.30
2023-04-18T14:29:10.429Z,4.80
2023-04-18T14:30:14.754Z,5.50
2023-04-18T14:31:17.923Z,6.60
2023-04-18T14:32:22.352Z,5.64
2023-04-18T14:33:25.626Z,5.00
2023-04-18T14:34:31.126Z,5.00
2023-04-18T14:35:34.659Z,4.90
2023-04-18T14:36:38.407Z,5.20
2023-04-18T14:37:42.188Z,5.50
2023-04-18T14:38:49.860Z,5.50
2023-04-18T14:39:53.321Z,4.40
2023-04-18T14:40:57.311Z,4.20
2023-04-18T14:42:02.083Z,4.20
2023-04-18T14:43:05.126Z,6.10
2023-04-18T14:44:08.971Z,5.40
2023-04-18T14:45:13.361Z,7.00
2023-04-18T14:46:18.358Z,6.10
2023-04-18T14:48:35.018Z,4.50
2023-04-18T14:49:39.230Z,5.64
2023-04-18T14:50:43.138Z,4.60
2023-04-18T14:51:45.974Z,6.00
2023-04-18T14:52:49.286Z,4.64
2023-04-18T14:53:52.320Z,5.20
2023-04-18T14:54:55.119Z,6.40
2023-04-18T14:55:57.957Z,6.70
2023-04-18T14:57:01.431Z,6.20
2023-04-18T14:58:06.619Z,6.40
2023-04-18T14:59:10.233Z,4.80
2023-04-18T15:00:15.148Z,5.50
2023-04-18T15:01:18.983Z,5.30
2023-04-18T15:02:22.866Z,5.20